Time;durP1;ratioP1;P1;durP2;ratioP2;P2;SDS_P1;SDS_P2;PMS_P1;PMS_P2;Temp;Humidity;BMP_temperature;BMP_pressure;BME280_temperature;BME280_humidity;BME280_pressure;Samples;Min_cycle;Max_cycle;Signal;HPM_P1;HPM_P2
2022/06/20 00:01:14;;;;;;;5.95;1.88;;;;;;;-142.64;100.00;58178.75;5055301;28;20033;-59
2022/06/20 00:03:41;;;;;;;5.32;2.60;;;;;;;-142.64;100.00;58178.75;5066404;28;20040;-59
2022/06/20 00:06:12;;;;;;;4.57;2.13;;;;;;;-142.64;100.00;58178.75;5060938;28;20495;-59
2022/06/20 00:08:38;;;;;;;8.50;2.30;;;;;;;-142.64;100.00;58178.75;5058344;28;20036;-61
2022/06/20 00:11:03;;;;;;;7.35;2.63;;;;;;;-142.64;100.00;58178.75;5069569;28;20036;-60
2022/06/20 00:13:31;;;;;;;6.68;2.53;;;;;;;-142.64;100.00;58178.75;5055840;28;20077;-59
2022/06/20 00:15:57;;;;;;;10.55;2.65;;;;;;;-142.64;100.00;58178.75;5063500;28;20092;-57
2022/06/20 00:18:23;;;;;;;8.13;2.88;;;;;;;-142.64;100.00;58178.75;5063675;28;20091;-61
2022/06/20 00:20:48;;;;;;;9.27;3.08;;;;;;;-142.64;100.00;58178.75;5057814;28;20044;-59
2022/06/20 00:23:14;;;;;;;6.40;3.35;;;;;;;-142.64;100.00;58178.75;5068113;28;20055;-59
2022/06/20 00:25:40;;;;;;;4.43;2.50;;;;;;;-142.64;100.00;58178.75;5058366;28;20032;-57
2022/06/20 00:28:05;;;;;;;7.85;2.80;;;;;;;-142.64;100.00;58178.75;5062164;28;20032;-59
2022/06/20 00:30:31;;;;;;;12.73;3.00;;;;;;;-142.64;100.00;58178.75;5040725;28;20445;-60
2022/06/20 00:32:57;;;;;;;8.43;3.42;;;;;;;-142.64;100.00;58178.75;5067425;28;20484;-60
2022/06/20 00:35:22;;;;;;;14.73;3.33;;;;;;;-142.64;100.00;58178.75;5054596;28;20105;-61
2022/06/20 00:37:48;;;;;;;11.50;3.22;;;;;;;-142.64;100.00;58178.75;5065906;28;20039;-61
2022/06/20 00:40:36;;;;;;;7.47;3.00;;;;;;;-142.64;100.00;58178.75;5060837;28;20039;-59
2022/06/20 00:43:03;;;;;;;8.57;2.78;;;;;;;-142.64;100.00;58178.75;5054704;28;20029;-61
2022/06/20 00:45:31;;;;;;;10.52;3.00;;;;;;;-142.64;100.00;58178.75;5067408;28;20025;-59
2022/06/20 00:48:04;;;;;;;10.07;3.13;;;;;;;-142.64;100.00;58178.75;5058905;28;20028;-61
2022/06/20 00:50:32;;;;;;;10.40;3.13;;;;;;;-142.64;100.00;58178.75;5059076;28;20029;-60
2022/06/20 00:53:06;;;;;;;5.88;2.58;;;;;;;-142.64;100.00;58178.75;5068236;28;20032;-59
2022/06/20 00:55:37;;;;;;;12.35;4.20;;;;;;;-142.64;100.00;58178.75;5039551;28;20360;-57
2022/06/20 00:58:10;;;;;;;15.70;3.70;;;;;;;-142.64;100.00;58178.75;5054846;28;20033;-59
2022/06/20 01:00:37;;;;;;;10.48;2.95;;;;;;;-142.64;100.00;58178.75;5063637;28;20063;-60
2022/06/20 01:03:13;;;;;;;8.57;3.45;;;;;;;-142.64;100.00;58178.75;5056120;28;20067;-59
2022/06/20 01:05:45;;;;;;;13.23;3.42;;;;;;;-142.64;100.00;58178.75;5036662;28;20021;-60
2022/06/20 01:08:30;;;;;;;10.82;3.03;;;;;;;-142.64;100.00;58178.75;5029027;28;20037;-60
2022/06/20 01:11:02;;;;;;;8.13;2.97;;;;;;;-142.64;100.00;58178.75;5079726;28;20452;-59
2022/06/20 01:13:28;;;;;;;10.77;3.47;;;;;;;-142.64;100.00;58178.75;5036568;28;20057;-60
2022/06/20 01:16:14;;;;;;;12.40;2.80;;;;;;;-142.64;100.00;58178.75;5058185;28;20068;-60
2022/06/20 01:18:46;;;;;;;9.32;2.72;;;;;;;-142.64;100.00;58178.75;5054345;28;20059;-61
2022/06/20 01:21:24;;;;;;;6.55;2.20;;;;;;;-142.64;100.00;58178.75;5067389;28;20472;-61
2022/06/20 01:24:27;;;;;;;8.82;2.42;;;;;;;-142.64;100.00;58178.75;5058892;28;20025;-60
2022/06/20 01:27:10;;;;;;;8.60;2.08;;;;;;;-142.64;100.00;58178.75;5035072;28;20041;-59
2022/06/20 01:29:36;;;;;;;7.78;2.35;;;;;;;-142.64;100.00;58178.75;5036899;28;20035;-60
2022/06/20 01:32:02;;;;;;;8.27;3.08;;;;;;;-142.64;100.00;58178.75;5043331;28;20411;-59
2022/06/20 01:34:27;;;;;;;9.45;2.45;;;;;;;-142.64;100.00;58178.75;5061961;28;20064;-57
2022/06/20 01:39:42;;;;;;;7.53;2.03;;;;;;;-142.64;100.00;58178.75;5044492;28;20098;-60
2022/06/20 01:42:22;;;;;;;6.47;1.60;;;;;;;-142.64;100.00;58178.75;5066236;28;20028;-59
2022/06/20 01:48:02;;;;;;;6.47;2.25;;;;;;;-142.64;100.00;58178.75;5047258;28;20039;-59
2022/06/20 01:50:28;;;;;;;9.70;2.13;;;;;;;-142.64;100.00;58178.75;5059794;28;20021;-61
2022/06/20 01:52:53;;;;;;;5.75;1.90;;;;;;;-142.64;100.00;58178.75;5065539;28;20613;-60
2022/06/20 01:55:22;;;;;;;6.07;1.90;;;;;;;-142.64;100.00;58178.75;5067185;28;20036;-61
2022/06/20 01:57:51;;;;;;;7.68;2.35;;;;;;;-142.64;100.00;58178.75;5058152;28;20033;-59
2022/06/20 02:00:20;;;;;;;7.57;2.10;;;;;;;-142.64;100.00;58178.75;5059813;28;20507;-60
2022/06/20 02:03:08;;;;;;;4.72;1.95;;;;;;;-142.64;100.00;58178.75;5066170;28;20086;-59
2022/06/20 02:05:34;;;;;;;8.68;1.98;;;;;;;-142.64;100.00;58178.75;5040893;28;20107;-59
2022/06/20 02:08:04;;;;;;;5.40;1.58;;;;;;;-142.64;100.00;58178.75;5063363;28;20399;-59
2022/06/20 02:10:48;;;;;;;8.05;1.88;;;;;;;-142.64;100.00;58178.75;5063906;28;20032;-60
2022/06/20 02:13:15;;;;;;;5.22;1.77;;;;;;;-142.64;100.00;58178.75;5054927;28;20145;-58
2022/06/20 02:15:41;;;;;;;6.38;1.92;;;;;;;-142.64;100.00;58178.75;5066010;28;20404;-58
2022/06/20 02:18:07;;;;;;;10.18;2.13;;;;;;;-142.64;100.00;58178.75;5051903;28;20045;-58
2022/06/20 02:20:38;;;;;;;5.28;1.65;;;;;;;-142.64;100.00;58178.75;5052616;28;20044;-57
2022/06/20 02:23:04;;;;;;;7.38;1.63;;;;;;;-142.64;100.00;58178.75;5063900;28;20098;-57
2022/06/20 02:25:31;;;;;;;4.82;1.83;;;;;;;-142.64;100.00;58178.75;5045645;28;20291;-60
2022/06/20 02:28:04;;;;;;;7.20;2.35;;;;;;;-142.64;100.00;58178.75;5047208;28;20523;-60
2022/06/20 02:30:30;;;;;;;4.78;1.80;;;;;;;-142.64;100.00;58178.75;5048439;28;20079;-61
2022/06/20 02:33:00;;;;;;;4.43;1.45;;;;;;;-142.64;100.00;58178.75;5067784;28;20028;-60
2022/06/20 02:35:26;;;;;;;4.57;1.83;;;;;;;-142.64;100.00;58178.75;5054995;28;20031;-62
2022/06/20 02:37:52;;;;;;;7.55;1.70;;;;;;;-142.64;100.00;58178.75;5064296;28;20128;-61
2022/06/20 02:40:20;;;;;;;5.97;1.73;;;;;;;-142.64;100.00;58178.75;5043876;28;20120;-60
2022/06/20 02:42:56;;;;;;;7.00;1.65;;;;;;;-142.64;100.00;58178.75;5058766;28;20124;-60
2022/06/20 02:45:23;;;;;;;3.38;1.35;;;;;;;-142.64;100.00;58178.75;5071314;28;20036;-59
2022/06/20 02:47:51;;;;;;;5.78;1.40;;;;;;;-142.64;100.00;58178.75;5061479;28;20034;-60
2022/06/20 02:50:21;;;;;;;3.85;1.58;;;;;;;-142.64;100.00;58178.75;5064346;28;20502;-60
2022/06/20 02:53:07;;;;;;;4.72;1.73;;;;;;;-142.64;100.00;58178.75;5069501;28;20089;-60
2022/06/20 02:55:37;;;;;;;4.38;1.52;;;;;;;-142.64;100.00;58178.75;5042027;28;20461;-60
2022/06/20 02:58:29;;;;;;;3.70;2.15;;;;;;;-142.64;100.00;58178.75;5064492;28;20547;-59
2022/06/20 03:01:02;;;;;;;6.65;1.95;;;;;;;-142.64;100.00;58178.75;5069891;28;20120;-59
2022/06/20 03:03:31;;;;;;;8.00;1.75;;;;;;;-142.64;100.00;58178.75;5042374;28;20052;-60
2022/06/20 03:05:57;;;;;;;7.53;1.80;;;;;;;-142.64;100.00;58178.75;5064226;28;20056;-61
2022/06/20 03:08:22;;;;;;;5.47;1.55;;;;;;;-142.64;100.00;58178.75;5056371;28;20067;-61
2022/06/20 03:10:49;;;;;;;7.28;1.77;;;;;;;-142.64;100.00;58178.75;5052816;28;20418;-61
2022/06/20 03:13:16;;;;;;;4.78;1.50;;;;;;;-142.64;100.00;58178.75;5085178;28;20082;-60
2022/06/20 03:15:43;;;;;;;4.47;1.30;;;;;;;-142.64;100.00;58178.75;5054418;28;20135;-60
2022/06/20 03:18:13;;;;;;;5.68;1.80;;;;;;;-142.64;100.00;58178.75;5046322;28;20040;-61
2022/06/20 03:20:39;;;;;;;7.60;1.93;;;;;;;-142.64;100.00;58178.75;5057191;28;20032;-60
2022/06/20 03:23:20;;;;;;;12.32;2.63;;;;;;;-142.64;100.00;58178.75;5083592;28;20057;-61
2022/06/20 03:25:45;;;;;;;6.93;1.70;;;;;;;-142.64;100.00;58178.75;5055957;28;20032;-58
2022/06/20 03:28:13;;;;;;;7.25;1.95;;;;;;;-142.64;100.00;58178.75;5050186;28;20526;-59
2022/06/20 03:30:39;;;;;;;7.43;1.73;;;;;;;-142.64;100.00;58178.75;5034097;28;20025;-59
2022/06/20 03:33:10;;;;;;;5.90;2.05;;;;;;;-142.64;100.00;58178.75;5055387;28;20052;-59
2022/06/20 03:35:36;;;;;;;;;;;;;;;-142.64;100.00;58178.75;5060347;28;20075;-60
2022/06/20 03:38:04;;;;;;;4.93;1.85;;;;;;;-142.64;100.00;58178.75;5064638;28;20390;-60
2022/06/20 03:40:30;;;;;;;7.88;2.00;;;;;;;-142.64;100.00;58178.75;5068208;28;20048;-60
2022/06/20 03:42:57;;;;;;;7.45;1.85;;;;;;;-142.64;100.00;58178.75;5069577;28;20487;-60
2022/06/20 03:45:24;;;;;;;5.00;1.75;;;;;;;-142.64;100.00;58178.75;5044222;28;20024;-59
2022/06/20 03:48:04;;;;;;;8.25;2.08;;;;;;;-142.64;100.00;58178.75;5047345;28;20199;-60
2022/06/20 03:50:32;;;;;;;7.10;2.13;;;;;;;-142.64;100.00;58178.75;5069458;28;20039;-59
2022/06/20 03:53:02;;;;;;;9.10;2.15;;;;;;;-142.64;100.00;58178.75;5061684;28;20037;-60
2022/06/20 03:55:31;;;;;;;6.75;1.98;;;;;;;-142.64;100.00;58178.75;5038940;28;20472;-61
2022/06/20 03:58:35;;;;;;;15.07;2.55;;;;;;;-142.64;100.00;58178.75;5049207;28;20040;-60
2022/06/20 04:01:10;;;;;;;8.10;2.22;;;;;;;-142.64;100.00;58178.75;5034555;28;20036;-60
2022/06/20 04:03:43;;;;;;;5.22;2.20;;;;;;;-142.64;100.00;58178.75;5043384;28;20036;-61
2022/06/20 04:06:39;;;;;;;7.40;2.15;;;;;;;-142.64;100.00;58178.75;5048174;28;20032;-59
2022/06/20 04:12:22;;;;;;;8.02;2.50;;;;;;;-142.64;100.00;58178.75;5039133;28;20216;-60
2022/06/20 04:14:55;;;;;;;10.70;2.50;;;;;;;-142.64;100.00;58178.75;5049133;28;20102;-58
2022/06/20 04:20:44;;;;;;;7.32;2.55;;;;;;;-142.64;100.00;58178.75;5055359;28;20044;-61
2022/06/20 04:23:17;;;;;;;6.03;1.85;;;;;;;-142.64;100.00;58178.75;5037166;28;20119;-60
2022/06/20 04:25:57;;;;;;;6.63;2.30;;;;;;;-142.64;100.00;58178.75;5033788;28;20033;-60
2022/06/20 04:28:54;;;;;;;9.52;1.90;;;;;;;-142.64;100.00;58178.75;5027552;28;20391;-60
2022/06/20 04:31:52;;;;;;;12.50;2.80;;;;;;;-142.64;100.00;58178.75;5053172;28;20395;-59
2022/06/20 04:34:21;;;;;;;6.93;2.28;;;;;;;-142.64;100.00;58178.75;5053094;28;20479;-60
2022/06/20 04:37:04;;;;;;;8.10;2.40;;;;;;;-142.64;100.00;58178.75;5044194;28;20400;-59
2022/06/20 04:39:42;;;;;;;7.10;2.30;;;;;;;-142.64;100.00;58178.75;5047618;28;20038;-61
2022/06/20 04:42:19;;;;;;;4.85;2.25;;;;;;;-142.64;100.00;58178.75;5054706;28;20068;-60
2022/06/20 04:44:53;;;;;;;8.40;2.50;;;;;;;-142.64;100.00;58178.75;5042649;28;20504;-60
2022/06/20 04:47:38;;;;;;;6.05;2.58;;;;;;;-142.64;100.00;58178.75;5066019;28;20033;-59
2022/06/20 04:50:05;;;;;;;9.57;2.63;;;;;;;-142.64;100.00;58178.75;5062120;28;20403;-59
2022/06/20 04:52:31;;;;;;;7.10;1.92;;;;;;;-142.64;100.00;58178.75;5064583;28;20028;-62
2022/06/20 04:54:58;;;;;;;7.28;2.33;;;;;;;-142.64;100.00;58178.75;5055248;28;20059;-60
2022/06/20 04:57:28;;;;;;;7.78;2.40;;;;;;;-142.64;100.00;58178.75;5044853;28;20449;-61
2022/06/20 04:59:59;;;;;;;11.67;2.63;;;;;;;-142.64;100.00;58178.75;5042288;28;20471;-60
2022/06/20 05:02:25;;;;;;;5.18;2.63;;;;;;;-142.64;100.00;58178.75;5060077;28;20150;-60
2022/06/20 05:04:53;;;;;;;9.10;2.88;;;;;;;-142.64;100.00;58178.75;5063379;28;20047;-59
2022/06/20 05:07:24;;;;;;;4.97;2.75;;;;;;;-142.64;100.00;58178.75;5063729;28;20392;-59
2022/06/20 05:10:39;;;;;;;9.20;2.53;;;;;;;-142.64;100.00;58178.75;5052580;28;20605;-59
2022/06/20 05:13:11;;;;;;;8.68;2.78;;;;;;;-142.64;100.00;58178.75;5065466;28;20036;-60
2022/06/20 05:15:44;;;;;;;9.57;2.88;;;;;;;-142.64;100.00;58178.75;5049633;28;20048;-59
2022/06/20 05:18:30;;;;;;;8.65;2.65;;;;;;;-142.64;100.00;58178.75;5060374;28;20564;-59
2022/06/20 05:21:03;;;;;;;13.68;3.53;;;;;;;-142.64;100.00;58178.75;5054494;28;20031;-60
2022/06/20 05:23:33;;;;;;;8.30;3.15;;;;;;;-142.64;100.00;58178.75;5038225;28;20025;-59
2022/06/20 05:26:00;;;;;;;7.43;2.95;;;;;;;-142.64;100.00;58178.75;5063810;28;20029;-61
2022/06/20 05:28:25;;;;;;;5.97;2.05;;;;;;;-142.64;100.00;58178.75;5063603;28;20066;-60
2022/06/20 05:30:51;;;;;;;4.55;2.47;;;;;;;-142.64;100.00;58178.75;5055283;28;20036;-60
2022/06/20 05:33:25;;;;;;;7.82;2.30;;;;;;;-142.64;100.00;58178.75;5050541;28;20101;-60
2022/06/20 05:35:58;;;;;;;8.95;3.00;;;;;;;-142.64;100.00;58178.75;5059109;28;20032;-60
2022/06/20 05:38:31;;;;;;;8.23;3.28;;;;;;;-142.64;100.00;58178.75;5059607;28;20041;-60
2022/06/20 05:40:58;;;;;;;7.97;2.80;;;;;;;-142.64;100.00;58178.75;5079360;28;20070;-60
2022/06/20 05:43:26;;;;;;;9.02;2.78;;;;;;;-142.64;100.00;58178.75;5050318;28;20440;-60
2022/06/20 05:46:00;;;;;;;7.88;2.80;;;;;;;-142.64;100.00;58178.75;5044482;28;20020;-59
2022/06/20 05:48:37;;;;;;;7.10;2.47;;;;;;;-142.64;100.00;58178.75;5059826;28;20021;-58
2022/06/20 05:51:05;;;;;;;9.02;2.80;;;;;;;-142.64;100.00;58178.75;5034612;28;20400;-59
2022/06/20 05:53:37;;;;;;;9.35;2.97;;;;;;;-142.64;100.00;58178.75;5063425;28;20115;-60
2022/06/20 05:56:11;;;;;;;6.72;3.08;;;;;;;-142.64;100.00;58178.75;5047459;28;20032;-60
2022/06/20 05:58:37;;;;;;;5.63;3.28;;;;;;;-142.64;100.00;58178.75;5058171;28;20033;-60
2022/06/20 06:01:04;;;;;;;6.10;2.90;;;;;;;-142.64;100.00;58178.75;5030984;28;20083;-60
2022/06/20 06:03:43;;;;;;;10.20;3.42;;;;;;;-142.64;100.00;58178.75;5066021;28;20500;-60
2022/06/20 06:06:16;;;;;;;7.85;3.03;;;;;;;-142.64;100.00;58178.75;5059372;28;20166;-61
2022/06/20 06:08:49;;;;;;;8.48;3.13;;;;;;;-142.64;100.00;58178.75;5055819;28;20033;-62
2022/06/20 06:11:30;;;;;;;10.73;3.33;;;;;;;-142.64;100.00;58178.75;5065755;28;20028;-62
2022/06/20 06:14:15;;;;;;;11.27;2.80;;;;;;;-142.64;100.00;58178.75;5045572;28;20028;-61
2022/06/20 06:16:56;;;;;;;6.63;3.22;;;;;;;-142.64;100.00;58178.75;5057362;28;20053;-61
2022/06/20 06:19:59;;;;;;;8.82;3.10;;;;;;;-142.64;100.00;58178.75;5055290;28;20028;-60
2022/06/20 06:22:33;;;;;;;9.63;3.33;;;;;;;-142.64;100.00;58178.75;5061826;28;20032;-60
2022/06/20 06:25:25;;;;;;;11.05;2.85;;;;;;;-142.64;100.00;58178.75;5053630;28;20083;-63
2022/06/20 06:27:53;;;;;;;7.78;2.55;;;;;;;-142.64;100.00;58178.75;5048310;28;20079;-61
2022/06/20 06:30:23;;;;;;;11.45;3.10;;;;;;;-142.64;100.00;58178.75;5065043;28;20045;-61
2022/06/20 06:33:35;;;;;;;8.85;3.05;;;;;;;-142.64;100.00;58178.75;5062837;28;20120;-60
2022/06/20 06:36:06;;;;;;;11.43;3.25;;;;;;;-142.64;100.00;58178.75;5020485;28;20126;-61
2022/06/20 06:38:37;;;;;;;9.10;3.08;;;;;;;-142.64;100.00;58178.75;5020115;28;20608;-62
2022/06/20 06:41:06;;;;;;;7.63;2.97;;;;;;;-142.64;100.00;58178.75;5022658;28;20047;-63
2022/06/20 06:43:38;;;;;;;5.93;2.90;;;;;;;-142.64;100.00;58178.75;5066961;28;20079;-65
2022/06/20 06:46:06;;;;;;;8.63;2.45;;;;;;;-142.64;100.00;58178.75;5052118;28;20148;-65
2022/06/20 06:48:45;;;;;;;7.88;2.55;;;;;;;-142.64;100.00;58178.75;5057365;28;20043;-67
2022/06/20 06:51:18;;;;;;;9.23;2.50;;;;;;;-142.64;100.00;58178.75;5067905;28;20094;-66
2022/06/20 06:54:01;;;;;;;7.68;2.60;;;;;;;-142.64;100.00;58178.75;5049311;28;20117;-66
2022/06/20 06:56:41;;;;;;;7.47;2.53;;;;;;;-142.64;100.00;58178.75;5050434;28;20387;-65
2022/06/20 06:59:21;;;;;;;7.40;2.60;;;;;;;-142.64;100.00;58178.75;5068872;28;20020;-65
2022/06/20 07:01:59;;;;;;;6.82;2.90;;;;;;;-142.64;100.00;58178.75;5048607;28;20025;-65
2022/06/20 07:04:54;;;;;;;8.88;2.50;;;;;;;-142.64;100.00;58178.75;5055931;28;20071;-66
2022/06/20 07:07:25;;;;;;;5.35;2.35;;;;;;;-142.64;100.00;58178.75;5055340;28;20423;-65
2022/06/20 07:09:51;;;;;;;6.13;2.60;;;;;;;-142.64;100.00;58178.75;5057912;28;20028;-64
2022/06/20 07:12:24;;;;;;;6.60;2.95;;;;;;;-142.64;100.00;58178.75;5062725;28;20028;-64
2022/06/20 07:14:59;;;;;;;8.65;2.67;;;;;;;-142.64;100.00;58178.75;5066916;28;20071;-65
2022/06/20 07:17:27;;;;;;;8.35;2.65;;;;;;;-142.64;100.00;58178.75;5047970;28;20033;-64
2022/06/20 07:19:52;;;;;;;7.13;2.65;;;;;;;-142.64;100.00;58178.75;5055680;28;20040;-64
2022/06/20 07:22:20;;;;;;;7.25;2.63;;;;;;;-142.64;100.00;58178.75;5062501;28;20063;-63
2022/06/20 07:24:46;;;;;;;10.38;2.58;;;;;;;-142.64;100.00;58178.75;5066546;28;20253;-63
2022/06/20 07:27:18;;;;;;;7.90;2.83;;;;;;;-142.64;100.00;58178.75;5054718;28;20227;-62
2022/06/20 07:29:47;;;;;;;7.25;3.13;;;;;;;-142.64;100.00;58178.75;5044327;28;20024;-64
2022/06/20 07:32:26;;;;;;;9.63;2.83;;;;;;;-142.64;100.00;58178.75;5045262;28;20372;-61
2022/06/20 07:34:56;;;;;;;9.02;2.95;;;;;;;-142.64;100.00;58178.75;5067315;28;20486;-63
2022/06/20 07:37:24;;;;;;;7.30;2.80;;;;;;;-142.64;100.00;58178.75;5044212;28;20070;-62
2022/06/20 07:39:56;;;;;;;5.90;2.33;;;;;;;-142.64;100.00;58178.75;5047259;28;20051;-61
2022/06/20 07:42:36;;;;;;;8.40;2.65;;;;;;;-142.64;100.00;58178.75;5061869;28;20044;-63
2022/06/20 07:45:31;;;;;;;9.15;2.22;;;;;;;-142.64;100.00;58178.75;5069445;28;20483;-63
2022/06/20 07:48:00;;;;;;;4.43;1.92;;;;;;;-142.64;100.00;58178.75;5050074;28;20041;-63
2022/06/20 07:50:54;;;;;;;6.50;2.22;;;;;;;-142.64;100.00;58178.75;5072146;28;20038;-62
2022/06/20 07:53:24;;;;;;;6.47;2.78;;;;;;;-142.64;100.00;58178.75;5066770;28;20448;-63
2022/06/20 07:55:56;;;;;;;6.78;2.08;;;;;;;-142.64;100.00;58178.75;5059857;28;20487;-64
2022/06/20 07:58:34;;;;;;;7.55;2.50;;;;;;;-142.64;100.00;58178.75;5059789;28;20539;-63
2022/06/20 08:01:04;;;;;;;6.32;2.40;;;;;;;-142.64;100.00;58178.75;5068787;28;20037;-64
2022/06/20 08:03:38;;;;;;;5.65;2.30;;;;;;;-142.64;100.00;58178.75;5039813;28;20230;-61
2022/06/20 08:06:12;;;;;;;6.78;2.30;;;;;;;-142.64;100.00;58178.75;5062229;28;20037;-63
2022/06/20 08:08:43;;;;;;;4.90;2.20;;;;;;;-142.64;100.00;58178.75;5062419;28;20399;-62
2022/06/20 08:11:40;;;;;;;4.63;1.98;;;;;;;-142.64;100.00;58178.75;5068574;28;20040;-61
2022/06/20 08:14:12;;;;;;;6.18;2.38;;;;;;;-142.64;100.00;58178.75;5059317;28;20486;-64
2022/06/20 08:16:37;;;;;;;7.03;1.80;;;;;;;-142.64;100.00;58178.75;5058649;28;20064;-61
2022/06/20 08:19:03;;;;;;;5.15;1.88;;;;;;;-142.64;100.00;58178.75;5067139;28;20024;-62
2022/06/20 08:21:32;;;;;;;4.65;1.77;;;;;;;-142.64;100.00;58178.75;5056031;28;20043;-61
2022/06/20 08:24:04;;;;;;;4.40;2.03;;;;;;;-142.64;100.00;58178.75;5063709;28;20112;-65
2022/06/20 08:26:33;;;;;;;4.82;1.73;;;;;;;-142.64;100.00;58178.75;5062630;28;20040;-63
2022/06/20 08:29:01;;;;;;;4.78;1.83;;;;;;;-142.64;100.00;58178.75;5037826;28;20428;-63
2022/06/20 08:31:32;;;;;;;4.97;1.88;;;;;;;-142.64;100.00;58178.75;5068628;28;20395;-62
2022/06/20 08:34:16;;;;;;;5.88;2.20;;;;;;;-142.64;100.00;58178.75;5059393;28;20106;-62
2022/06/20 08:37:00;;;;;;;3.60;2.03;;;;;;;-142.64;100.00;58178.75;5057424;28;20041;-64
2022/06/20 08:39:39;;;;;;;4.30;1.80;;;;;;;-142.64;100.00;58178.75;5037961;28;20467;-63
2022/06/20 08:42:35;;;;;;;5.43;1.92;;;;;;;-142.64;100.00;58178.75;5061479;28;20476;-63
2022/06/20 08:45:29;;;;;;;5.85;1.90;;;;;;;-142.64;100.00;58178.75;5067878;28;20059;-61
2022/06/20 08:48:08;;;;;;;5.35;2.08;;;;;;;-142.64;100.00;58178.75;5044826;28;20025;-62
2022/06/20 08:51:05;;;;;;;11.07;2.03;;;;;;;-142.64;100.00;58178.75;5040746;28;20056;-62
2022/06/20 08:53:42;;;;;;;7.72;2.22;;;;;;;-142.64;100.00;58178.75;5038902;28;20036;-61
2022/06/20 08:56:12;;;;;;;5.07;2.03;;;;;;;-142.64;100.00;58178.75;5061496;28;20064;-60
2022/06/20 08:58:54;;;;;;;6.75;2.13;;;;;;;-142.64;100.00;58178.75;5055412;28;20044;-60
2022/06/20 09:01:43;;;;;;;4.65;2.22;;;;;;;-142.64;100.00;58178.75;5065386;28;20035;-61
2022/06/20 09:04:28;;;;;;;6.55;2.33;;;;;;;-142.64;100.00;58178.75;5060045;28;20058;-61
2022/06/20 09:07:10;;;;;;;6.47;2.20;;;;;;;-142.64;100.00;58178.75;5053965;28;20734;-62
2022/06/20 09:10:09;;;;;;;6.28;1.95;;;;;;;-142.64;100.00;58178.75;5040396;28;20365;-60
2022/06/20 09:13:04;;;;;;;3.72;1.90;;;;;;;-142.64;100.00;58178.75;5057821;28;20036;-61
2022/06/20 09:15:53;;;;;;;5.32;2.30;;;;;;;-142.64;100.00;58178.75;5036163;28;20054;-62
2022/06/20 09:18:25;;;;;;;5.30;2.08;;;;;;;-142.64;100.00;58178.75;5056571;28;20060;-63
2022/06/20 09:20:57;;;;;;;7.15;2.40;;;;;;;-142.64;100.00;58178.75;5064804;28;20036;-63
2022/06/20 09:23:44;;;;;;;7.75;2.40;;;;;;;-142.64;100.00;58178.75;5052732;28;20035;-63
2022/06/20 09:26:33;;;;;;;8.57;2.47;;;;;;;-142.64;100.00;58178.75;5059902;28;20033;-61
2022/06/20 09:29:16;;;;;;;5.55;2.15;;;;;;;-142.64;100.00;58178.75;5066785;28;20033;-61
2022/06/20 09:32:04;;;;;;;8.20;2.55;;;;;;;-142.64;100.00;58178.75;5041949;28;20020;-62
2022/06/20 09:34:32;;;;;;;7.43;2.63;;;;;;;-142.64;100.00;58178.75;5054953;28;20112;-62
2022/06/20 09:37:37;;;;;;;8.18;2.47;;;;;;;-142.64;100.00;58178.75;5066386;28;20035;-62
2022/06/20 09:40:10;;;;;;;9.23;2.50;;;;;;;-142.64;100.00;58178.75;5047751;28;20151;-62
2022/06/20 09:42:52;;;;;;;8.95;2.60;;;;;;;-142.64;100.00;58178.75;5057422;28;20033;-63
2022/06/20 09:45:29;;;;;;;8.00;2.40;;;;;;;-142.64;100.00;58178.75;5065529;28;20082;-62
2022/06/20 09:48:08;;;;;;;7.78;2.38;;;;;;;-142.64;100.00;58178.75;5052439;28;20484;-62
2022/06/20 09:50:59;;;;;;;3.97;1.73;;;;;;;-142.64;100.00;58178.75;5063099;28;20387;-63
2022/06/20 09:53:27;;;;;;;;;;;;;;;-142.64;100.00;58178.75;5058118;28;20054;-62
2022/06/20 09:56:04;;;;;;;7.88;2.40;;;;;;;-142.64;100.00;58178.75;5067000;28;20374;-62
2022/06/20 09:58:29;;;;;;;6.38;2.13;;;;;;;-142.64;100.00;58178.75;5066585;28;20028;-60
2022/06/20 10:01:17;;;;;;;8.52;2.40;;;;;;;-142.64;100.00;58178.75;5058574;28;20546;-64
2022/06/20 10:03:51;;;;;;;9.70;2.83;;;;;;;-142.64;100.00;58178.75;5045671;28;20033;-64
2022/06/20 10:06:35;;;;;;;8.30;2.80;;;;;;;-142.64;100.00;58178.75;5063511;28;20392;-63
2022/06/20 10:09:26;;;;;;;7.60;2.60;;;;;;;-142.64;100.00;58178.75;5070698;28;20062;-64
2022/06/20 10:12:10;;;;;;;9.80;2.85;;;;;;;-142.64;100.00;58178.75;5048042;28;20040;-62
2022/06/20 10:14:59;;;;;;;9.23;2.88;;;;;;;-142.64;100.00;58178.75;5060628;28;20033;-63
2022/06/20 10:17:33;;;;;;;6.25;2.25;;;;;;;-142.64;100.00;58178.75;5070551;28;20045;-62
2022/06/20 10:20:22;;;;;;;7.95;2.42;;;;;;;-142.64;100.00;58178.75;5061897;28;20150;-64
2022/06/20 10:23:20;;;;;;;7.93;2.58;;;;;;;-142.64;100.00;58178.75;5057680;28;20365;-63
2022/06/20 10:26:10;;;;;;;6.30;2.45;;;;;;;-142.64;100.00;58178.75;5050584;28;20400;-62
2022/06/20 10:29:13;;;;;;;6.78;2.30;;;;;;;-142.64;100.00;58178.75;5037891;28;20029;-61
2022/06/20 10:31:42;;;;;;;7.32;2.38;;;;;;;-142.64;100.00;58178.75;5034092;28;20053;-62
2022/06/20 10:34:14;;;;;;;8.75;2.30;;;;;;;-142.64;100.00;58178.75;5044266;28;20078;-62
2022/06/20 10:37:20;;;;;;;7.28;2.33;;;;;;;-142.64;100.00;58178.75;5032805;28;20030;-62
2022/06/20 10:39:57;;;;;;;6.97;2.05;;;;;;;-142.64;100.00;58178.75;5029933;28;20076;-62
2022/06/20 10:42:33;;;;;;;8.77;2.22;;;;;;;-142.64;100.00;58178.75;5030930;28;20298;-61
2022/06/20 10:45:34;;;;;;;6.25;2.28;;;;;;;-142.64;100.00;58178.75;5032883;28;20033;-61
2022/06/20 10:48:14;;;;;;;7.22;2.00;;;;;;;-142.64;100.00;58178.75;5028230;28;20182;-61
2022/06/20 10:50:48;;;;;;;6.75;1.77;;;;;;;-142.64;100.00;58178.75;5034458;28;20112;-61
2022/06/20 10:53:23;;;;;;;7.18;2.28;;;;;;;-142.64;100.00;58178.75;5034074;28;20436;-61
2022/06/20 10:55:55;;;;;;;5.30;2.03;;;;;;;-142.64;100.00;58178.75;5032703;28;20087;-63
2022/06/20 10:58:39;;;;;;;5.55;1.80;;;;;;;-142.64;100.00;58178.75;5032395;28;20037;-61
2022/06/20 11:01:15;;;;;;;4.57;1.70;;;;;;;-142.64;100.00;58178.75;5033646;28;20034;-62
2022/06/20 11:03:54;;;;;;;5.10;1.70;;;;;;;-142.64;100.00;58178.75;5032113;28;20087;-61
2022/06/20 11:06:41;;;;;;;6.68;1.60;;;;;;;-142.64;100.00;58178.75;5032194;28;20041;-61
2022/06/20 11:09:12;;;;;;;5.63;1.88;;;;;;;-142.64;100.00;58178.75;5031987;28;20037;-61
2022/06/20 11:11:43;;;;;;;4.68;1.50;;;;;;;-142.64;100.00;58178.75;5033587;28;20609;-61
2022/06/20 11:14:15;;;;;;;;;;;;;;;-142.64;100.00;58178.75;5042630;28;20108;-63
2022/06/20 11:16:47;;;;;;;7.53;1.92;;;;;;;-142.64;100.00;58178.75;5062179;28;19921;-60
2022/06/20 11:19:18;;;;;;;3.90;1.50;;;;;;;-142.64;100.00;58178.75;5057476;28;20056;-61
2022/06/20 11:21:53;;;;;;;7.20;1.70;;;;;;;-142.64;100.00;58178.75;5069342;28;20033;-61
2022/06/20 11:24:24;;;;;;;5.78;1.85;;;;;;;-142.64;100.00;58178.75;5059053;28;20032;-63
2022/06/20 11:27:27;;;;;;;7.47;2.67;;;;;;;-142.64;100.00;58178.75;5062153;28;20021;-63
2022/06/20 11:29:59;;;;;;;5.03;1.95;;;;;;;-142.64;100.00;58178.75;5068792;28;20044;-60
2022/06/20 11:32:40;;;;;;;7.50;2.38;;;;;;;-142.64;100.00;58178.75;5047405;28;20086;-62
2022/06/20 11:35:49;;;;;;;5.65;2.10;;;;;;;-142.64;100.00;58178.75;5041606;28;20416;-61
2022/06/20 11:38:28;;;;;;;6.47;2.20;;;;;;;-142.64;100.00;58178.75;5044353;28;20491;-61
2022/06/20 11:41:15;;;;;;;8.95;2.20;;;;;;;-142.64;100.00;58178.75;5060533;28;20089;-62
2022/06/20 11:44:07;;;;;;;11.52;3.05;;;;;;;-142.64;100.00;58178.75;5067921;28;20040;-62
2022/06/20 11:46:57;;;;;;;7.40;2.60;;;;;;;-142.64;100.00;58178.75;5059594;28;20024;-61
2022/06/20 11:49:44;;;;;;;11.02;2.80;;;;;;;-142.64;100.00;58178.75;5057423;28;20037;-62
2022/06/20 11:52:36;;;;;;;6.95;2.30;;;;;;;-142.64;100.00;58178.75;5041531;28;20040;-61
2022/06/20 11:55:18;;;;;;;7.00;2.60;;;;;;;-142.64;100.00;58178.75;5056898;28;20040;-61
2022/06/20 11:57:46;;;;;;;10.05;3.28;;;;;;;-142.64;100.00;58178.75;5067554;28;20526;-61
2022/06/20 12:00:31;;;;;;;9.35;2.42;;;;;;;-142.64;100.00;58178.75;5056472;28;20041;-60